createdAt,value
2019-03-28T00:00:45.231Z,10.20
2019-03-28T00:06:10.935Z,10.20
2019-03-28T00:11:36.381Z,10.10
2019-03-28T00:17:04.190Z,10.00
2019-03-28T00:22:43.966Z,9.90
2019-03-28T00:28:08.336Z,9.90
2019-03-28T00:33:33.457Z,9.80
2019-03-28T00:38:58.225Z,9.80
2019-03-28T00:44:23.087Z,9.80
2019-03-28T00:49:47.717Z,9.90
2019-03-28T00:55:12.814Z,10.00
2019-03-28T01:00:38.264Z,9.90
2019-03-28T01:06:03.765Z,9.80
2019-03-28T01:11:28.667Z,9.80
2019-03-28T01:16:53.504Z,9.80
2019-03-28T01:22:18.345Z,9.90
2019-03-28T01:27:43.371Z,9.80
2019-03-28T01:33:08.272Z,9.90
2019-03-28T01:38:33.576Z,9.80
2019-03-28T01:43:58.370Z,9.80
2019-03-28T01:49:22.772Z,9.80
2019-03-28T01:54:47.763Z,9.90
2019-03-28T02:00:12.985Z,9.90
2019-03-28T02:05:37.786Z,9.90
2019-03-28T02:11:03.177Z,9.90
2019-03-28T02:16:28.583Z,9.90
2019-03-28T02:21:53.556Z,9.80
2019-03-28T02:27:23.876Z,9.80
2019-03-28T02:32:44.538Z,9.80
2019-03-28T02:38:09.118Z,9.80
2019-03-28T02:43:33.730Z,9.80
2019-03-28T02:48:58.758Z,9.70
2019-03-28T02:54:23.572Z,9.70
2019-03-28T02:59:48.714Z,9.60
2019-03-28T03:05:13.994Z,9.60
2019-03-28T03:10:38.559Z,9.60
2019-03-28T03:16:03.537Z,9.50
2019-03-28T03:21:28.606Z,9.60
2019-03-28T03:26:53.617Z,9.60
2019-03-28T03:32:18.767Z,9.60
2019-03-28T03:37:44.529Z,9.60
2019-03-28T03:43:09.592Z,9.60
2019-03-28T03:48:35.104Z,9.60
2019-03-28T03:53:59.927Z,9.50
2019-03-28T03:59:24.947Z,9.40
2019-03-28T04:04:50.123Z,9.30
2019-03-28T04:10:16.125Z,9.40
2019-03-28T04:15:40.953Z,9.40
2019-03-28T04:21:06.001Z,9.50
2019-03-28T04:26:31.813Z,9.50
2019-03-28T04:31:57.411Z,9.50
2019-03-28T04:37:30.715Z,9.50
2019-03-28T04:42:55.702Z,9.50
2019-03-28T04:48:20.394Z,9.50
2019-03-28T04:53:45.054Z,9.50
2019-03-28T04:59:09.641Z,9.50
2019-03-28T05:04:34.432Z,9.40
2019-03-28T05:09:59.783Z,9.40
2019-03-28T05:15:24.989Z,9.40
2019-03-28T05:20:49.587Z,9.40
2019-03-28T05:26:14.167Z,9.40
2019-03-28T05:31:39.447Z,9.40
2019-03-28T05:37:04.637Z,9.50
2019-03-28T05:42:30.376Z,9.40
2019-03-28T05:47:55.292Z,9.40
2019-03-28T05:53:20.514Z,9.40
2019-03-28T05:58:45.719Z,9.40
2019-03-28T06:04:10.697Z,9.40
2019-03-28T06:09:40.129Z,9.50
2019-03-28T06:15:03.874Z,9.40
2019-03-28T06:20:39.617Z,9.50
2019-03-28T06:26:04.323Z,9.40
2019-03-28T06:31:29.246Z,9.40
2019-03-28T06:36:54.220Z,9.50
2019-03-28T06:42:18.879Z,9.60
2019-03-28T06:47:43.546Z,9.70
2019-03-28T06:53:08.730Z,9.70
2019-03-28T06:58:33.984Z,9.60
2019-03-28T07:03:59.210Z,9.70
2019-03-28T07:09:24.057Z,9.70
2019-03-28T07:14:48.938Z,9.80
2019-03-28T07:20:13.890Z,9.80
2019-03-28T07:25:39.215Z,9.90
2019-03-28T07:31:04.759Z,9.90
2019-03-28T07:36:29.834Z,9.90
2019-03-28T07:41:55.103Z,10.00
2019-03-28T07:47:27.018Z,10.00
2019-03-28T07:52:55.145Z,10.10
2019-03-28T07:58:19.513Z,10.10
2019-03-28T08:03:45.025Z,10.20
2019-03-28T08:09:11.170Z,10.20
2019-03-28T08:14:36.373Z,10.30
2019-03-28T08:20:01.486Z,10.30
2019-03-28T08:25:26.665Z,10.30
2019-03-28T08:30:51.681Z,10.40
2019-03-28T08:36:17.649Z,10.50
2019-03-28T08:41:42.102Z,11.00
2019-03-28T08:47:07.570Z,11.00
2019-03-28T08:52:31.872Z,10.90
2019-03-28T08:57:56.631Z,10.80
2019-03-28T09:03:22.222Z,10.80
2019-03-28T09:08:46.696Z,10.80
2019-03-28T09:14:11.719Z,10.80
2019-03-28T09:19:38.995Z,10.90
2019-03-28T09:25:03.368Z,10.90
2019-03-28T09:30:48.134Z,10.90
2019-03-28T09:36:05.984Z,11.00
2019-03-28T09:41:30.955Z,11.00
2019-03-28T09:46:56.386Z,11.10
2019-03-28T09:52:21.382Z,11.20
2019-03-28T09:57:46.402Z,11.20
2019-03-28T10:03:11.979Z,11.30
2019-03-28T10:08:36.799Z,11.40
2019-03-28T10:14:02.106Z,11.40
2019-03-28T10:19:26.899Z,11.40
2019-03-28T10:24:51.887Z,11.50
2019-03-28T10:30:17.653Z,11.70
2019-03-28T10:35:42.696Z,11.80
2019-03-28T10:41:08.054Z,11.90
2019-03-28T10:46:33.506Z,12.00
2019-03-28T10:51:58.601Z,12.10
2019-03-28T10:57:29.911Z,12.20
2019-03-28T11:02:50.542Z,12.40
2019-03-28T11:08:16.518Z,12.70
2019-03-28T11:13:41.632Z,12.90
2019-03-28T11:19:06.561Z,12.90
2019-03-28T11:24:31.963Z,12.80
2019-03-28T11:29:56.263Z,12.80
2019-03-28T11:35:21.541Z,12.80
2019-03-28T11:40:46.421Z,13.00
2019-03-28T11:46:11.658Z,13.20
2019-03-28T11:51:36.582Z,13.20
2019-03-28T11:57:01.907Z,13.20
2019-03-28T12:02:27.471Z,13.20
2019-03-28T12:07:52.458Z,13.30
2019-03-28T12:13:17.055Z,13.30
2019-03-28T12:18:41.964Z,13.30
2019-03-28T12:24:07.476Z,13.40
2019-03-28T12:29:35.688Z,13.50
2019-03-28T12:34:58.323Z,13.50
2019-03-28T12:40:23.694Z,13.50
2019-03-28T12:45:54.061Z,13.50
2019-03-28T12:51:22.045Z,13.70
2019-03-28T12:56:45.657Z,13.90
2019-03-28T13:02:10.255Z,14.20
2019-03-28T13:07:35.283Z,14.20
2019-03-28T13:13:00.586Z,14.00
2019-03-28T13:18:25.383Z,13.80
2019-03-28T13:23:50.841Z,13.80
2019-03-28T13:29:15.641Z,13.70
2019-03-28T13:34:40.297Z,13.80
2019-03-28T13:40:05.594Z,13.90
2019-03-28T13:45:31.003Z,14.20
2019-03-28T13:50:55.941Z,14.60
2019-03-28T13:56:21.348Z,14.90
2019-03-28T14:01:46.476Z,15.00
2019-03-28T14:07:11.528Z,14.80
2019-03-28T14:12:36.645Z,14.80
2019-03-28T14:18:01.445Z,15.10
2019-03-28T14:23:26.491Z,15.00
2019-03-28T14:28:51.184Z,14.90
2019-03-28T14:34:16.276Z,14.90
2019-03-28T14:39:41.335Z,14.80
2019-03-28T14:45:06.447Z,14.80
2019-03-28T14:50:39.243Z,14.90
2019-03-28T14:56:04.442Z,15.00
2019-03-28T15:01:29.428Z,15.00
2019-03-28T15:06:54.715Z,15.00
2019-03-28T15:12:19.743Z,15.20
2019-03-28T15:17:45.074Z,15.10
2019-03-28T15:23:10.322Z,15.10
2019-03-28T15:28:35.410Z,15.00
2019-03-28T15:34:00.779Z,15.00
2019-03-28T15:39:25.305Z,15.10
2019-03-28T15:44:50.273Z,15.10
2019-03-28T15:50:15.729Z,15.10
2019-03-28T15:55:40.394Z,15.00
2019-03-28T16:01:05.355Z,14.90
2019-03-28T16:06:29.980Z,14.90
2019-03-28T16:12:02.452Z,14.90
2019-03-28T16:17:21.767Z,14.80
2019-03-28T16:22:46.764Z,14.80
2019-03-28T16:28:11.809Z,14.90
2019-03-28T16:33:36.657Z,14.90
2019-03-28T16:39:01.884Z,14.80
2019-03-28T16:44:27.185Z,14.70
2019-03-28T16:49:52.377Z,14.80
2019-03-28T16:55:26.163Z,14.80
2019-03-28T17:00:43.783Z,14.70
2019-03-28T17:06:08.771Z,14.70
2019-03-28T17:11:33.419Z,14.70
2019-03-28T17:16:58.700Z,14.70
2019-03-28T17:22:23.825Z,14.70
2019-03-28T17:27:48.964Z,14.60
2019-03-28T17:33:17.656Z,14.50
2019-03-28T17:38:40.737Z,14.30
2019-03-28T17:44:06.378Z,14.10
2019-03-28T17:49:30.814Z,14.00
2019-03-28T17:54:55.709Z,13.90
2019-03-28T18:00:20.918Z,13.80
2019-03-28T18:05:57.354Z,13.70
2019-03-28T18:11:13.037Z,13.70
2019-03-28T18:16:38.663Z,13.70
2019-03-28T18:22:04.316Z,13.60
2019-03-28T18:27:29.265Z,13.50
2019-03-28T18:32:54.745Z,13.40
2019-03-28T18:38:20.212Z,13.40
2019-03-28T18:43:44.982Z,13.30
2019-03-28T18:49:10.170Z,13.30
2019-03-28T18:54:34.860Z,13.30
2019-03-28T19:00:00.115Z,13.10
2019-03-28T19:05:24.717Z,13.10
2019-03-28T19:10:50.969Z,13.10
2019-03-28T19:16:16.234Z,13.10
2019-03-28T19:21:40.834Z,13.00
2019-03-28T19:27:05.764Z,12.80
2019-03-28T19:32:32.451Z,12.70
2019-03-28T19:37:58.505Z,12.70
2019-03-28T19:43:24.315Z,12.60
2019-03-28T19:48:49.874Z,12.50
2019-03-28T19:54:14.849Z,12.30
2019-03-28T19:59:40.102Z,12.20
2019-03-28T20:05:06.013Z,12.20
2019-03-28T20:10:31.412Z,12.10
2019-03-28T20:15:56.799Z,12.10
2019-03-28T20:21:21.811Z,12.00
2019-03-28T20:26:46.634Z,12.10
2019-03-28T20:32:12.161Z,12.10
2019-03-28T20:37:37.933Z,12.20
2019-03-28T20:43:02.826Z,12.20
2019-03-28T20:48:27.812Z,12.10
2019-03-28T20:53:53.342Z,11.90
2019-03-28T20:59:18.965Z,11.80
2019-03-28T21:04:44.105Z,11.80
2019-03-28T21:10:12.735Z,11.80
2019-03-28T21:15:37.431Z,11.80
2019-03-28T21:21:02.916Z,11.80
2019-03-28T21:26:29.425Z,11.80
2019-03-28T21:31:53.961Z,11.70
2019-03-28T21:37:18.962Z,11.70
2019-03-28T21:42:43.573Z,11.60
2019-03-28T21:48:08.284Z,11.50
2019-03-28T21:53:33.411Z,11.50
2019-03-28T21:58:58.138Z,11.50
2019-03-28T22:04:23.400Z,11.40
2019-03-28T22:09:48.460Z,11.30
2019-03-28T22:15:13.967Z,11.10
2019-03-28T22:20:39.135Z,10.90
2019-03-28T22:26:03.508Z,10.80
2019-03-28T22:31:28.722Z,10.60
2019-03-28T22:36:57.613Z,10.50
2019-03-28T22:42:20.109Z,10.30
2019-03-28T22:47:44.923Z,10.20
2019-03-28T22:53:09.298Z,10.20
2019-03-28T22:58:35.043Z,10.20
2019-03-28T23:04:00.597Z,10.20
2019-03-28T23:09:25.642Z,10.10
2019-03-28T23:14:50.680Z,10.10
2019-03-28T23:20:16.306Z,10.10
2019-03-28T23:25:41.083Z,10.00
2019-03-28T23:31:06.599Z,10.00
2019-03-28T23:36:31.349Z,10.00
2019-03-28T23:41:55.746Z,10.00
2019-03-28T23:47:20.978Z,9.90
2019-03-28T23:52:45.712Z,9.80
2019-03-28T23:58:10.937Z,9.70
